Time;durP1;ratioP1;P1;durP2;ratioP2;P2;SDS_P1;SDS_P2;PMS_P1;PMS_P2;Temp;Humidity;BMP_temperature;BMP_pressure;BME280_temperature;BME280_humidity;BME280_pressure;Samples;Min_cycle;Max_cycle;Signal;HPM_P1;HPM_P2
2023/04/14 00:00:27;;;;;;;4;3.6;;;;;;;3.17;93.84863;928.416;;;;
2023/04/14 00:02:52;;;;;;;4;3.6;;;;;;;3.13;94.35352;928.4244;;;;
2023/04/14 00:05:17;;;;;;;4.1;3.7;;;;;;;3.17;94.44336;928.4112;;;;
2023/04/14 00:07:43;;;;;;;5.1;4.1;;;;;;;3.36;93.9248;928.4492;;;;
2023/04/14 00:10:08;;;;;;;4.5;4;;;;;;;3.47;93.02734;928.3572;;;;
2023/04/14 00:12:37;;;;;;;6.2;4.1;;;;;;;3.57;92.85645;928.4094;;;;
2023/04/14 00:15:02;;;;;;;4.4;3.8;;;;;;;3.55;92.51758;928.3344;;;;
2023/04/14 00:17:29;;;;;;;4.7;3.8;;;;;;;3.41;93.02441;928.3773;;;;
2023/04/14 00:19:54;;;;;;;4.9;4.4;;;;;;;3.44;93.19043;928.3976;;;;
2023/04/14 00:22:21;;;;;;;5.1;4.3;;;;;;;3.52;93.03906;928.4125;;;;
2023/04/14 00:24:45;;;;;;;5.1;4.6;;;;;;;3.58;92.86035;928.4081;;;;
2023/04/14 00:27:12;;;;;;;5.2;4.7;;;;;;;3.4;92.85449;928.3948;;;;
2023/04/14 00:29:38;;;;;;;5.1;4.3;;;;;;;3.33;93.23145;928.3856;;;;
2023/04/14 00:32:03;;;;;;;4.9;4.4;;;;;;;3.46;93.18066;928.3318;;;;
2023/04/14 00:34:28;;;;;;;5.4;4.6;;;;;;;3.52;92.9834;928.4252;;;;
2023/04/14 00:36:54;;;;;;;6.3;4.9;;;;;;;3.54;93.16504;928.4774;;;;
2023/04/14 00:39:20;;;;;;;6.3;4.9;;;;;;;3.62;93.24121;928.4675;;;;
2023/04/14 00:41:48;;;;;;;6;5.4;;;;;;;3.63;92.80469;928.5125;;;;
2023/04/14 00:44:14;;;;;;;6.4;4.7;;;;;;;3.65;92.48242;928.498;;;;
2023/04/14 00:46:39;;;;;;;5.7;4.7;;;;;;;3.58;92.74805;928.4955;;;;
2023/04/14 00:49:04;;;;;;;5.3;4.7;;;;;;;3.5;92.86523;928.5247;;;;
2023/04/14 00:51:30;;;;;;;5.8;4.6;;;;;;;3.55;92.71973;928.4807;;;;
2023/04/14 00:53:55;;;;;;;6.3;4.9;;;;;;;3.52;92.48926;928.4818;;;;
2023/04/14 00:56:22;;;;;;;5.6;5.1;;;;;;;3.53;92.44434;928.4504;;;;
2023/04/14 00:58:47;;;;;;;5;4.5;;;;;;;3.52;92.86914;928.3951;;;;
2023/04/14 01:01:16;;;;;;;5.9;5;;;;;;;3.59;93.09766;928.3728;;;;
2023/04/14 01:03:41;;;;;;;7.4;6;;;;;;;3.69;92.78223;928.4208;;;;
2023/04/14 01:06:06;;;;;;;6.8;5.8;;;;;;;3.78;92.11719;928.361;;;;
2023/04/14 01:08:31;;;;;;;5.6;5;;;;;;;3.82;91.29492;928.3731;;;;
2023/04/14 01:10:58;;;;;;;5.3;4.8;;;;;;;3.82;91.06836;928.3219;;;;
2023/04/14 01:13:23;;;;;;;5.4;4.7;;;;;;;3.78;91.34082;928.3005;;;;
2023/04/14 01:15:48;;;;;;;5.7;5.1;;;;;;;3.67;91.61035;928.3527;;;;
2023/04/14 01:18:13;;;;;;;5.4;4.8;;;;;;;3.62;91.86816;928.4233;;;;
2023/04/14 01:21:08;;;;;;;5.8;5.2;;;;;;;3.6;91.89746;928.4517;;;;
2023/04/14 01:23:34;;;;;;;6.1;5.5;;;;;;;3.62;92.37402;928.4509;;;;
2023/04/14 01:25:58;;;;;;;5.4;4.9;;;;;;;3.6;92.45996;928.4242;;;;
2023/04/14 01:28:23;;;;;;;5.5;4.9;;;;;;;3.66;91.83301;928.4895;;;;
2023/04/14 01:30:49;;;;;;;6.1;5.4;;;;;;;3.66;91.91113;928.5012;;;;
2023/04/14 01:33:13;;;;;;;8;6.3;;;;;;;3.72;92.33887;928.5062;;;;
2023/04/14 01:35:39;;;;;;;7.7;6.8;;;;;;;3.71;91.8877;928.4581;;;;
2023/04/14 01:38:04;;;;;;;7.2;6.4;;;;;;;3.59;92.30957;928.5767;;;;
2023/04/14 01:40:29;;;;;;;7.3;6.5;;;;;;;3.59;92.06641;928.5555;;;;
2023/04/14 01:42:54;;;;;;;7.6;6.8;;;;;;;3.43;92.9502;928.5491;;;;
2023/04/14 01:45:22;;;;;;;9.5;7.5;;;;;;;3.51;92.78809;928.5452;;;;
2023/04/14 01:47:47;;;;;;;9.8;8.6;;;;;;;3.61;92.6416;928.5223;;;;
2023/04/14 01:50:13;;;;;;;10.1;8.5;;;;;;;3.71;92.16895;928.5014;;;;
2023/04/14 01:52:38;;;;;;;7.7;6.8;;;;;;;3.61;91.77832;928.4523;;;;
2023/04/14 01:55:05;;;;;;;8.7;7.2;;;;;;;3.45;92.02246;928.4031;;;;
2023/04/14 01:57:28;;;;;;;8.5;7.6;;;;;;;3.38;92.24219;928.4007;;;;
2023/04/14 01:59:53;;;;;;;9.4;8;;;;;;;3.3;92.2373;928.3741;;;;
2023/04/14 02:02:19;;;;;;;10.3;8.6;;;;;;;3.24;92.40527;928.3822;;;;
2023/04/14 02:04:49;;;;;;;11;9.2;;;;;;;3.19;92.56445;928.3731;;;;
2023/04/14 02:07:14;;;;;;;11.3;9.2;;;;;;;3.11;92.83594;928.3981;;;;
2023/04/14 02:09:40;;;;;;;12;9.8;;;;;;;3.18;92.97363;928.3885;;;;
2023/04/14 02:12:05;;;;;;;11.1;9.9;;;;;;;3.12;93.4668;928.3314;;;;
2023/04/14 02:14:30;;;;;;;13.4;9.8;;;;;;;3.05;94.24707;928.2899;;;;
2023/04/14 02:16:57;;;;;;;13.2;10.5;;;;;;;2.95;94.30176;928.2717;;;;
2023/04/14 02:19:24;;;;;;;13.9;10.7;;;;;;;2.98;93.97559;928.1569;;;;
2023/04/14 02:21:49;;;;;;;13.5;10.9;;;;;;;2.87;94.80176;928.1719;;;;
2023/04/14 02:24:14;;;;;;;14.4;11.6;;;;;;;2.92;94.74414;928.1461;;;;
2023/04/14 02:26:39;;;;;;;13.8;11.4;;;;;;;3.03;94.41406;928.1142;;;;
2023/04/14 02:29:05;;;;;;;15.8;12;;;;;;;3.09;93.99902;928.0296;;;;
2023/04/14 02:31:29;;;;;;;14.3;11;;;;;;;3.07;93.3877;928.0229;;;;
2023/04/14 02:33:57;;;;;;;12.4;9.8;;;;;;;2.96;93.75586;928.0494;;;;
2023/04/14 02:36:22;;;;;;;12.3;9.7;;;;;;;2.99;93.58496;928.1587;;;;
2023/04/14 02:38:49;;;;;;;11.6;9.5;;;;;;;3.02;93.29883;928.1887;;;;
2023/04/14 02:41:15;;;;;;;12;9.5;;;;;;;2.91;93.98145;928.1342;;;;
2023/04/14 02:43:39;;;;;;;10.8;8.4;;;;;;;2.74;95.16602;928.1867;;;;
2023/04/14 02:46:04;;;;;;;11;8.8;;;;;;;2.72;95.40625;928.2201;;;;
2023/04/14 02:48:35;;;;;;;11.6;9.4;;;;;;;2.66;95.8877;928.251;;;;
2023/04/14 02:51:00;;;;;;;12;9.7;;;;;;;2.66;96.12305;928.2737;;;;
2023/04/14 02:53:25;;;;;;;10.9;9.2;;;;;;;2.7;96.29883;928.2213;;;;
2023/04/14 02:55:50;;;;;;;12.6;10;;;;;;;2.72;96.09082;928.2648;;;;
2023/04/14 02:58:15;;;;;;;13.8;9.8;;;;;;;2.78;95.9248;928.2103;;;;
2023/04/14 03:00:41;;;;;;;11.8;9.5;;;;;;;2.88;95.74805;928.2789;;;;
2023/04/14 03:03:06;;;;;;;13.2;9.8;;;;;;;2.96;95.21484;928.3906;;;;
2023/04/14 03:05:33;;;;;;;12.4;10.1;;;;;;;2.87;95.30664;928.4313;;;;
2023/04/14 03:07:59;;;;;;;10.8;9.2;;;;;;;2.95;95.26855;928.4771;;;;
2023/04/14 03:10:24;;;;;;;11.2;9;;;;;;;3.02;94.92578;928.3923;;;;
2023/04/14 03:12:49;;;;;;;10.7;8.3;;;;;;;2.89;96.01953;928.3436;;;;
2023/04/14 03:15:14;;;;;;;9.2;7.7;;;;;;;2.95;95.57129;928.3212;;;;
2023/04/14 03:17:41;;;;;;;9.3;6.5;;;;;;;3.01;94.97754;928.3016;;;;
2023/04/14 03:20:08;;;;;;;9.2;7.2;;;;;;;3.04;94.78418;928.3101;;;;
2023/04/14 03:22:37;;;;;;;9.4;7.5;;;;;;;2.94;94.69434;928.2746;;;;
2023/04/14 03:25:00;;;;;;;10.9;8.5;;;;;;;2.75;95.29102;928.3111;;;;
2023/04/14 03:27:30;;;;;;;11.4;8.6;;;;;;;2.51;96.3457;928.2473;;;;
2023/04/14 03:29:55;;;;;;;11.2;8.7;;;;;;;2.46;97.42285;928.2494;;;;
2023/04/14 03:32:22;;;;;;;11.2;8.5;;;;;;;2.48;97.52734;928.2505;;;;
2023/04/14 03:34:47;;;;;;;12.8;9.6;;;;;;;2.5;97.83398;928.2148;;;;
2023/04/14 03:37:12;;;;;;;10.1;8.5;;;;;;;2.59;97.38672;928.2272;;;;
2023/04/14 03:39:37;;;;;;;10.7;8.3;;;;;;;2.55;97.14941;928.2081;;;;
2023/04/14 03:42:02;;;;;;;9.8;7.9;;;;;;;2.51;97.80273;928.1742;;;;
2023/04/14 03:44:30;;;;;;;10.4;8.2;;;;;;;2.59;97.64453;928.1423;;;;
2023/04/14 03:46:53;;;;;;;10.2;8.1;;;;;;;2.71;96.83008;928.0989;;;;
2023/04/14 03:49:19;;;;;;;11.6;8.4;;;;;;;2.71;96.67285;928.1021;;;;
2023/04/14 03:51:42;;;;;;;10.2;7.5;;;;;;;2.89;96.08594;928.0363;;;;
2023/04/14 03:54:08;;;;;;;9.4;7.4;;;;;;;2.9;95.90918;928.0703;;;;
2023/04/14 03:56:36;;;;;;;10.3;8.3;;;;;;;2.98;95.53223;928.152;;;;
2023/04/14 03:58:58;;;;;;;10.3;8.1;;;;;;;3;95.12402;928.243;;;;
2023/04/14 04:02:35;;;;;;;12.4;8.5;;;;;;;2.93;95.19727;928.3067;;;;
2023/04/14 04:04:59;;;;;;;10.6;8.6;;;;;;;2.94;94.98633;928.4116;;;;
2023/04/14 04:07:26;;;;;;;10.5;8.3;;;;;;;2.88;95.28809;928.4386;;;;
2023/04/14 04:09:51;;;;;;;11.9;8.7;;;;;;;2.85;95.50586;928.4883;;;;
2023/04/14 04:12:17;;;;;;;10.4;8;;;;;;;2.9;95.44727;928.4799;;;;
2023/04/14 04:14:42;;;;;;;9.9;7.7;;;;;;;2.92;95.24023;928.4363;;;;
2023/04/14 04:17:09;;;;;;;10.1;7.5;;;;;;;2.89;95.2002;928.4656;;;;
2023/04/14 04:19:34;;;;;;;8.3;6.8;;;;;;;2.84;95.10938;928.4352;;;;
2023/04/14 04:22:00;;;;;;;7.7;6.1;;;;;;;2.93;94.75977;928.5332;;;;
2023/04/14 04:24:25;;;;;;;7.3;5.9;;;;;;;2.94;94.31348;928.5529;;;;
2023/04/14 04:26:52;;;;;;;7.3;6;;;;;;;2.95;94.28125;928.5878;;;;
2023/04/14 04:29:17;;;;;;;6.7;5.5;;;;;;;2.9;94.30469;928.5986;;;;
2023/04/14 04:31:42;;;;;;;5.4;4.4;;;;;;;2.58;95.75879;928.601;;;;
2023/04/14 04:34:07;;;;;;;6.4;5.4;;;;;;;2.58;96.27441;928.6552;;;;
2023/04/14 04:36:32;;;;;;;5.7;5;;;;;;;2.5;96.60352;928.6738;;;;
2023/04/14 04:38:57;;;;;;;5.1;4.6;;;;;;;2.54;97.0918;928.6321;;;;
2023/04/14 04:41:22;;;;;;;4.9;4.4;;;;;;;2.68;96.71191;928.7167;;;;
2023/04/14 04:44:19;;;;;;;4.8;3.7;;;;;;;2.65;96.41211;928.7341;;;;
2023/04/14 04:46:46;;;;;;;4.9;4.2;;;;;;;2.62;96.74219;928.7429;;;;
2023/04/14 04:49:11;;;;;;;5.7;4.9;;;;;;;2.71;96.4043;928.836;;;;
2023/04/14 04:51:39;;;;;;;7.2;5.6;;;;;;;2.84;96.05176;928.8172;;;;
2023/04/14 04:54:04;;;;;;;11.7;8.2;;;;;;;2.83;95.43457;928.7378;;;;
2023/04/14 04:56:34;;;;;;;15.4;9.3;;;;;;;2.66;95.46191;928.79;;;;
2023/04/14 04:59:00;;;;;;;19.2;11.3;;;;;;;2.51;96.93945;928.8083;;;;
2023/04/14 05:01:24;;;;;;;21.3;12.6;;;;;;;2.61;97.11914;928.8596;;;;
2023/04/14 05:03:49;;;;;;;21.8;12.9;;;;;;;2.78;96.78906;928.9169;;;;
2023/04/14 05:06:15;;;;;;;21.6;13.3;;;;;;;2.79;96.49902;928.8513;;;;
2023/04/14 05:08:41;;;;;;;22.6;13.3;;;;;;;2.84;95.91699;928.837;;;;
2023/04/14 05:11:06;;;;;;;25;14.1;;;;;;;2.87;95.78906;928.9201;;;;
2023/04/14 05:13:32;;;;;;;23.5;14.6;;;;;;;2.86;95.5625;928.8962;;;;
2023/04/14 05:15:57;;;;;;;23;14.5;;;;;;;2.87;95.73242;928.8597;;;;
2023/04/14 05:18:25;;;;;;;19.7;13.2;;;;;;;2.79;95.73633;928.8786;;;;
2023/04/14 05:20:50;;;;;;;23.2;14.1;;;;;;;2.85;96.14355;928.9041;;;;
2023/04/14 05:23:17;;;;;;;24.8;14.2;;;;;;;2.89;95.6709;928.8713;;;;
2023/04/14 05:25:43;;;;;;;23.5;14.3;;;;;;;2.99;95.05469;928.8734;;;;
2023/04/14 05:28:08;;;;;;;21.6;15.3;;;;;;;3.05;94.79688;928.8522;;;;
2023/04/14 05:30:35;;;;;;;25.8;17;;;;;;;2.95;95.10059;928.823;;;;
2023/04/14 05:33:00;;;;;;;14.4;10.1;;;;;;;2.94;95.1875;928.7802;;;;
2023/04/14 05:35:26;;;;;;;13.7;10.4;;;;;;;2.95;95.33594;928.7703;;;;
2023/04/14 05:37:51;;;;;;;12.8;9.2;;;;;;;3.03;94.87207;928.6708;;;;
2023/04/14 05:40:19;;;;;;;10.5;7.8;;;;;;;3.04;94.85156;928.7466;;;;
2023/04/14 05:42:42;;;;;;;7.2;5.7;;;;;;;3.01;94.61133;928.7633;;;;
2023/04/14 05:45:11;;;;;;;5.9;5.2;;;;;;;3.02;94.62305;928.7729;;;;
2023/04/14 05:47:38;;;;;;;5.7;4.5;;;;;;;3.03;94.26758;928.7511;;;;
2023/04/14 05:50:06;;;;;;;6;5.3;;;;;;;2.86;95.18066;928.6817;;;;
2023/04/14 05:52:31;;;;;;;8.1;5.8;;;;;;;2.9;95.69629;928.7731;;;;
2023/04/14 05:54:58;;;;;;;6.9;6;;;;;;;2.95;95.3584;928.7867;;;;
2023/04/14 05:57:23;;;;;;;8.8;6.6;;;;;;;3.04;95.20117;928.7553;;;;
2023/04/14 05:59:48;;;;;;;10.2;7.7;;;;;;;3.18;94.82715;928.8181;;;;
2023/04/14 06:02:13;;;;;;;8.9;7.7;;;;;;;3.23;94.70117;928.8098;;;;
2023/04/14 06:04:42;;;;;;;11.4;9;;;;;;;3.36;94.38281;928.8967;;;;
2023/04/14 06:07:07;;;;;;;11.5;8.4;;;;;;;3.44;93.61426;928.9672;;;;
2023/04/14 06:09:32;;;;;;;10;8.4;;;;;;;3.42;92.92773;928.9055;;;;
2023/04/14 06:11:57;;;;;;;9.8;7.5;;;;;;;3.37;93.34277;928.8931;;;;
2023/04/14 06:14:25;;;;;;;11.5;7.8;;;;;;;3.36;93.58789;928.7946;;;;
2023/04/14 06:16:50;;;;;;;7.5;5.8;;;;;;;3.43;93.11816;928.8734;;;;
2023/04/14 06:19:17;;;;;;;6.6;5.8;;;;;;;3.39;93.14453;928.8934;;;;
2023/04/14 06:21:40;;;;;;;8.1;6.2;;;;;;;3.47;93.18652;928.8923;;;;
2023/04/14 06:24:06;;;;;;;10.1;7.1;;;;;;;3.61;93.46191;928.9741;;;;
2023/04/14 06:26:31;;;;;;;11.1;7.8;;;;;;;3.56;93.02441;928.9752;;;;
2023/04/14 06:28:59;;;;;;;9.8;7.4;;;;;;;3.42;92.9502;928.9779;;;;
2023/04/14 06:31:24;;;;;;;8.5;7;;;;;;;3.56;92.84473;928.9832;;;;
2023/04/14 06:33:51;;;;;;;8.9;7.1;;;;;;;3.52;92.2959;928.9916;;;;
2023/04/14 06:36:17;;;;;;;9.2;7.4;;;;;;;3.47;92.48828;928.8585;;;;
2023/04/14 06:38:41;;;;;;;9.4;7.2;;;;;;;3.52;91.9248;928.9358;;;;
2023/04/14 06:41:06;;;;;;;8.7;6.8;;;;;;;3.64;91.55957;929.0031;;;;
2023/04/14 06:43:33;;;;;;;9.2;7.5;;;;;;;3.73;91.22852;928.9709;;;;
2023/04/14 06:45:58;;;;;;;18.8;14.7;;;;;;;3.71;91.29199;928.9832;;;;
2023/04/14 06:48:26;;;;;;;11.6;8.8;;;;;;;3.6;91.86621;928.9673;;;;
2023/04/14 06:50:50;;;;;;;7.9;6.6;;;;;;;3.55;91.87695;928.9498;;;;
2023/04/14 06:53:17;;;;;;;7.5;6.5;;;;;;;3.57;91.74609;928.9973;;;;
2023/04/14 06:55:42;;;;;;;7.8;6.3;;;;;;;3.63;91.69043;929.0201;;;;
2023/04/14 06:58:10;;;;;;;6.9;6.2;;;;;;;3.66;91.81055;929.0453;;;;
2023/04/14 07:00:35;;;;;;;5.5;4.9;;;;;;;3.44;91.98633;928.9821;;;;
2023/04/14 07:03:02;;;;;;;5.2;4.7;;;;;;;3.49;92.26758;928.9581;;;;
2023/04/14 07:05:27;;;;;;;5.5;4.8;;;;;;;3.48;92.54688;928.9099;;;;
2023/04/14 07:07:56;;;;;;;5.1;4.5;;;;;;;3.49;93.14355;928.9422;;;;
2023/04/14 07:10:25;;;;;;;6.1;5.2;;;;;;;3.63;92.54395;928.9642;;;;
2023/04/14 07:12:50;;;;;;;8.9;7.6;;;;;;;3.8;91.59277;928.9172;;;;
2023/04/14 07:15:19;;;;;;;10.5;8.4;;;;;;;3.87;90.82129;928.9142;;;;
2023/04/14 07:17:48;;;;;;;13.3;9.9;;;;;;;3.82;90.63184;928.9353;;;;
2023/04/14 07:20:13;;;;;;;16.2;12.7;;;;;;;3.92;90.49316;928.9189;;;;
2023/04/14 07:22:40;;;;;;;14.6;11.7;;;;;;;3.93;89.95703;928.9043;;;;
2023/04/14 07:25:05;;;;;;;11.6;9.1;;;;;;;3.81;89.32422;928.9728;;;;
2023/04/14 07:27:31;;;;;;;11;9;;;;;;;3.6;90.54004;929.0126;;;;
2023/04/14 07:29:57;;;;;;;9.4;8.1;;;;;;;3.63;90.75781;929.0296;;;;
2023/04/14 07:32:23;;;;;;;82.1;45.2;;;;;;;3.67;90.36328;929.0745;;;;
2023/04/14 07:34:48;;;;;;;90;46.2;;;;;;;3.74;90.10645;929.0089;;;;
2023/04/14 07:37:16;;;;;;;58.4;32.7;;;;;;;3.8;90.16504;929.1408;;;;
2023/04/14 07:39:41;;;;;;;30.4;20.4;;;;;;;3.86;90.13379;929.0525;;;;
2023/04/14 07:42:07;;;;;;;14.1;10.7;;;;;;;3.7;90.43652;929.0719;;;;
2023/04/14 07:44:32;;;;;;;11.4;9.2;;;;;;;3.78;90.71191;929.1041;;;;
2023/04/14 07:46:59;;;;;;;9.9;8.2;;;;;;;3.85;90.60352;929.1012;;;;
2023/04/14 07:49:24;;;;;;;9.5;8.2;;;;;;;4.04;90.49805;929.1342;;;;
2023/04/14 07:51:49;;;;;;;10.6;9.1;;;;;;;4.16;90.25293;929.1513;;;;
2023/04/14 07:54:16;;;;;;;8.3;6.9;;;;;;;4.32;89.55566;929.2121;;;;
2023/04/14 07:56:41;;;;;;;6.2;5.2;;;;;;;4.36;88.8877;929.249;;;;
2023/04/14 07:59:06;;;;;;;7.9;5.9;;;;;;;4.38;88.76953;929.2873;;;;
2023/04/14 08:01:32;;;;;;;5.2;4.5;;;;;;;4.17;88.99512;929.2957;;;;
2023/04/14 08:03:58;;;;;;;5;4.5;;;;;;;4.39;88.50195;929.3449;;;;
2023/04/14 08:06:25;;;;;;;5.3;4.8;;;;;;;4.34;88.5127;929.34;;;;
2023/04/14 08:08:52;;;;;;;6.4;5.1;;;;;;;4.26;88.32715;929.3299;;;;
2023/04/14 08:11:17;;;;;;;5.2;4.7;;;;;;;4.29;88.22168;929.3723;;;;
2023/04/14 08:13:45;;;;;;;6.4;4.1;;;;;;;4.35;88.13184;929.3844;;;;
2023/04/14 08:16:09;;;;;;;4.1;3.7;;;;;;;4.33;87.72363;929.4202;;;;
2023/04/14 08:18:36;;;;;;;3.5;3.1;;;;;;;4.35;87.46777;929.4269;;;;
2023/04/14 08:21:01;;;;;;;3.8;3.4;;;;;;;4.35;87.5332;929.4497;;;;
2023/04/14 08:23:27;;;;;;;4.4;4;;;;;;;4.38;87.33887;929.4849;;;;
2023/04/14 08:25:52;;;;;;;3.3;3;;;;;;;4.53;86.86328;929.4982;;;;
2023/04/14 08:28:18;;;;;;;1.6;1.5;;;;;;;4.57;86.41113;929.5541;;;;
2023/04/14 08:30:43;;;;;;;2.6;2.1;;;;;;;4.67;86.16992;929.508;;;;
2023/04/14 08:33:11;;;;;;;2.2;2;;;;;;;4.49;86.61914;929.5392;;;;
2023/04/14 08:35:36;;;;;;;2.8;2.3;;;;;;;4.19;87.81934;929.5302;;;;
2023/04/14 08:38:02;;;;;;;3;2.5;;;;;;;4.13;88.84082;929.4644;;;;
2023/04/14 08:40:27;;;;;;;2.4;1.9;;;;;;;4.34;88.58008;929.5435;;;;
2023/04/14 08:42:55;;;;;;;7.1;5.3;;;;;;;4.62;88.44727;929.5198;;;;
2023/04/14 08:45:20;;;;;;;4.4;3;;;;;;;4.79;87.32031;929.5359;;;;
2023/04/14 08:47:47;;;;;;;2.7;2.5;;;;;;;4.96;86.58008;929.5935;;;;
2023/04/14 08:50:12;;;;;;;3.1;2.2;;;;;;;5.02;85.8125;929.6216;;;;
2023/04/14 08:52:37;;;;;;;3.3;2.9;;;;;;;5.14;86.16504;929.6298;;;;
2023/04/14 08:55:03;;;;;;;5.1;3.5;;;;;;;5.28;85.21289;929.5589;;;;
2023/04/14 08:57:32;;;;;;;22.3;11.5;;;;;;;5.29;84.26758;929.5606;;;;
2023/04/14 09:00:03;;;;;;;14.7;9.5;;;;;;;4.76;84.72363;929.5748;;;;
2023/04/14 09:02:25;;;;;;;6.8;5;;;;;;;4.49;86.29297;929.5125;;;;
2023/04/14 09:04:53;;;;;;;6.2;5;;;;;;;4.34;87.83789;929.5598;;;;
2023/04/14 09:07:17;;;;;;;5.4;4.2;;;;;;;4.58;88.41699;929.5148;;;;
2023/04/14 09:09:42;;;;;;;3.7;3.2;;;;;;;4.86;87.75391;929.521;;;;
2023/04/14 09:12:08;;;;;;;5.1;3.2;;;;;;;5.14;86.65918;929.5399;;;;
2023/04/14 09:14:35;;;;;;;3.6;2.5;;;;;;;5.36;86.05078;929.4858;;;;
2023/04/14 09:17:01;;;;;;;3.6;2.5;;;;;;;5.27;84.51172;929.3678;;;;
2023/04/14 09:19:26;;;;;;;2;1.8;;;;;;;4.59;87.28125;929.3747;;;;
2023/04/14 09:21:52;;;;;;;2.4;2.2;;;;;;;4.8;87.18848;929.3674;;;;
2023/04/14 09:24:22;;;;;;;2.6;1.7;;;;;;;4.31;88.14746;929.4387;;;;
2023/04/14 09:26:43;;;;;;;2.6;2.1;;;;;;;4.5;89.6709;929.5118;;;;
2023/04/14 09:29:09;;;;;;;2.5;2;;;;;;;4.59;88.72266;929.5394;;;;
2023/04/14 09:31:34;;;;;;;4.4;3.4;;;;;;;4.88;88.30957;929.5095;;;;
2023/04/14 09:34:00;;;;;;;4;2.8;;;;;;;4.86;87.74121;929.5327;;;;
2023/04/14 09:36:26;;;;;;;6;4.7;;;;;;;5.15;87.45215;929.5535;;;;
2023/04/14 09:38:51;;;;;;;7.5;5.1;;;;;;;5.51;86.25098;929.4613;;;;
2023/04/14 09:41:16;;;;;;;5.5;4.8;;;;;;;5.53;86.01563;929.5303;;;;
2023/04/14 09:43:44;;;;;;;5.7;5.1;;;;;;;5.56;85.47168;929.5711;;;;
2023/04/14 09:46:09;;;;;;;5.7;5.2;;;;;;;5.82;84.99219;929.5933;;;;
2023/04/14 09:48:37;;;;;;;6.4;5.2;;;;;;;6.01;83.36719;929.6472;;;;
2023/04/14 09:51:02;;;;;;;7.1;5.7;;;;;;;5.95;82.22656;929.645;;;;
2023/04/14 09:53:28;;;;;;;7.1;5.9;;;;;;;6.02;82.54785;929.7078;;;;
2023/04/14 09:55:55;;;;;;;5.7;5.1;;;;;;;6.01;82.1582;929.7562;;;;
2023/04/14 09:58:21;;;;;;;5.6;4.6;;;;;;;5.78;82.34082;929.7646;;;;
2023/04/14 10:00:48;;;;;;;5.5;4;;;;;;;5.78;82.7041;929.7378;;;;
2023/04/14 10:03:15;;;;;;;5.1;4.6;;;;;;;6.02;81.64355;929.8003;;;;
2023/04/14 10:05:43;;;;;;;6.6;5.8;;;;;;;5.99;81.01367;929.7844;;;;
2023/04/14 10:08:09;;;;;;;6.2;5.5;;;;;;;5.79;82.11816;929.8588;;;;
2023/04/14 10:10:40;;;;;;;7.2;5.7;;;;;;;5.78;83.16699;929.7575;;;;
2023/04/14 10:13:07;;;;;;;6.3;5.3;;;;;;;5.94;81.58301;929.705;;;;
2023/04/14 10:15:32;;;;;;;5.6;5;;;;;;;6.02;81.63086;929.6627;;;;
2023/04/14 10:17:57;;;;;;;5.1;4.6;;;;;;;6.19;80.66895;929.6497;;;;
2023/04/14 10:20:22;;;;;;;6;4.9;;;;;;;6.24;80.80176;929.63;;;;
2023/04/14 10:22:52;;;;;;;5.4;4.7;;;;;;;6.23;80.62109;929.6458;;;;
2023/04/14 10:25:17;;;;;;;5.6;5;;;;;;;6.34;80.00781;929.5435;;;;
2023/04/14 10:27:44;;;;;;;6.4;5.3;;;;;;;6.38;79.21191;929.5075;;;;
2023/04/14 10:30:10;;;;;;;4.4;4;;;;;;;6.56;78.65723;929.4947;;;;
2023/04/14 10:32:37;;;;;;;4.8;4.1;;;;;;;6.47;79.03613;929.5341;;;;
2023/04/14 10:35:02;;;;;;;4.7;4.2;;;;;;;6.68;78.74805;929.4653;;;;
2023/04/14 10:37:27;;;;;;;4.7;4.2;;;;;;;6.84;77.33887;929.4274;;;;
2023/04/14 10:39:52;;;;;;;4.6;4.1;;;;;;;6.85;77.10254;929.4307;;;;
2023/04/14 10:42:18;;;;;;;4.1;3.7;;;;;;;6.87;76.5625;929.4791;;;;
2023/04/14 10:44:43;;;;;;;6.3;4.5;;;;;;;7;76.50684;929.4359;;;;
2023/04/14 10:47:08;;;;;;;6.2;4.6;;;;;;;7.11;76.32227;929.3833;;;;
2023/04/14 10:49:36;;;;;;;4.6;4.1;;;;;;;7.02;76.4082;929.5139;;;;
2023/04/14 10:52:01;;;;;;;5;4.5;;;;;;;6.67;78.7334;929.5094;;;;
2023/04/14 10:54:28;;;;;;;4.8;4.4;;;;;;;6.65;78.26563;929.5291;;;;
2023/04/14 10:56:53;;;;;;;4.5;4.1;;;;;;;6.73;77.81738;929.5219;;;;
2023/04/14 10:59:19;;;;;;;4.4;4;;;;;;;6.61;78.4502;929.4508;;;;
2023/04/14 11:01:45;;;;;;;5.5;5;;;;;;;6.64;78.21777;929.4095;;;;
2023/04/14 11:04:10;;;;;;;3.7;3.4;;;;;;;6.55;78.25977;929.3577;;;;
2023/04/14 11:06:35;;;;;;;3.7;3;;;;;;;6.5;78.5;929.2947;;;;
2023/04/14 11:09:00;;;;;;;2.1;2;;;;;;;6.44;79.29004;929.317;;;;
2023/04/14 11:11:25;;;;;;;2.3;2.1;;;;;;;6.36;79.16113;929.2361;;;;
2023/04/14 11:13:51;;;;;;;2.3;2;;;;;;;6.09;81.22656;929.1641;;;;
2023/04/14 11:16:16;;;;;;;2.1;2;;;;;;;6.29;80.54004;929.1683;;;;
2023/04/14 11:18:41;;;;;;;3.2;2.4;;;;;;;6.24;80.58691;929.1763;;;;
2023/04/14 11:21:06;;;;;;;4.6;3.4;;;;;;;6.48;80.49707;929.2297;;;;
2023/04/14 11:23:33;;;;;;;4.2;3.8;;;;;;;6.21;80.28613;929.2448;;;;
2023/04/14 11:25:58;;;;;;;5;4.5;;;;;;;6.2;81.8457;929.223;;;;
2023/04/14 11:28:25;;;;;;;5.9;5.2;;;;;;;6.1;82.99121;929.1429;;;;
2023/04/14 11:30:50;;;;;;;5;3.7;;;;;;;5.93;82.40625;929.2339;;;;
2023/04/14 11:33:16;;;;;;;5.6;4.9;;;;;;;5.57;83.84668;929.2687;;;;
2023/04/14 11:35:41;;;;;;;3.4;3.1;;;;;;;5.31;84.02246;929.2594;;;;
2023/04/14 11:38:09;;;;;;;4.8;4.3;;;;;;;5.86;83.58691;929.2137;;;;
2023/04/14 11:40:35;;;;;;;3.4;3.1;;;;;;;5.54;82.74707;929.307;;;;
2023/04/14 11:43:01;;;;;;;4.5;4.1;;;;;;;5.47;85.73633;929.2849;;;;
2023/04/14 11:45:26;;;;;;;4.7;4.2;;;;;;;5.83;86.00977;929.3193;;;;
2023/04/14 11:47:53;;;;;;;4.4;4;;;;;;;5.36;84.71973;929.275;;;;
2023/04/14 11:50:18;;;;;;;4.3;3.8;;;;;;;5.36;85.91602;929.2191;;;;
2023/04/14 11:52:45;;;;;;;5.3;4.1;;;;;;;5.83;85.76172;929.0405;;;;
2023/04/14 11:55:09;;;;;;;3.6;3.3;;;;;;;5.97;83.80273;929.0203;;;;
2023/04/14 11:57:35;;;;;;;4.4;3.8;;;;;;;6.42;86.00391;929.0401;;;;
2023/04/14 12:00:00;;;;;;;4.9;4.1;;;;;;;6.94;83.12012;929.1252;;;;
2023/04/14 12:02:25;;;;;;;5.2;4.3;;;;;;;6.74;80.73828;929.128;;;;
2023/04/14 12:04:52;;;;;;;4.3;3.4;;;;;;;7.58;81.29395;929.0386;;;;
2023/04/14 12:07:17;;;;;;;6;4.9;;;;;;;8.53;77.81348;929.051;;;;
2023/04/14 12:09:43;;;;;;;3.7;3.3;;;;;;;8.73;72.77832;929.077;;;;
2023/04/14 12:12:07;;;;;;;3.4;3.1;;;;;;;9.22;71.56445;929.0368;;;;
2023/04/14 12:14:34;;;;;;;3.2;2.9;;;;;;;9.38;70.93164;928.9428;;;;
2023/04/14 12:16:59;;;;;;;3.1;2.8;;;;;;;9.59;70.36133;928.9261;;;;
2023/04/14 12:19:26;;;;;;;3.4;2.9;;;;;;;9.44;71.13379;928.8525;;;;
2023/04/14 12:21:52;;;;;;;3.2;2.9;;;;;;;9.38;71.29395;928.7268;;;;
2023/04/14 12:24:19;;;;;;;3.2;2.5;;;;;;;9.4;69.37402;928.7339;;;;
2023/04/14 12:26:45;;;;;;;3;2.7;;;;;;;9.7;70.00293;928.7512;;;;
2023/04/14 12:29:12;;;;;;;2.3;2.1;;;;;;;10.06;68.00781;928.6552;;;;
2023/04/14 12:31:36;;;;;;;2.6;2;;;;;;;9.73;67.4209;928.7329;;;;
2023/04/14 12:34:05;;;;;;;1.7;1.6;;;;;;;9.17;68.6875;928.745;;;;
2023/04/14 12:36:28;;;;;;;2.1;1.9;;;;;;;8.58;72.06055;928.7559;;;;
2023/04/14 12:38:53;;;;;;;2.8;2;;;;;;;8.74;72.71289;928.6755;;;;
2023/04/14 12:41:19;;;;;;;2;1.8;;;;;;;8.64;73.68555;928.5889;;;;
2023/04/14 12:43:46;;;;;;;2.6;2.3;;;;;;;8.88;72.41797;928.5059;;;;
2023/04/14 12:46:11;;;;;;;2.9;2.3;;;;;;;9.27;70.55957;928.5348;;;;
2023/04/14 12:48:38;;;;;;;2.7;2.4;;;;;;;9.6;69.94043;928.5486;;;;
2023/04/14 12:51:03;;;;;;;2.5;2.3;;;;;;;9.28;69.94727;928.5363;;;;
2023/04/14 12:53:29;;;;;;;2.6;2.4;;;;;;;9.41;70.15039;928.4402;;;;
2023/04/14 12:55:54;;;;;;;3.3;2.7;;;;;;;9.73;70.31543;928.4508;;;;
2023/04/14 12:58:20;;;;;;;3.1;2.4;;;;;;;10.2;67.35742;928.4015;;;;
2023/04/14 13:00:44;;;;;;;2.1;2;;;;;;;10.15;68.19434;928.2673;;;;
2023/04/14 13:03:10;;;;;;;2.5;2.3;;;;;;;9.76;68.84961;928.3123;;;;
2023/04/14 13:05:35;;;;;;;2.2;2;;;;;;;9.72;68.42188;928.3164;;;;
2023/04/14 13:08:00;;;;;;;2.3;2.1;;;;;;;9.97;68.50781;928.2958;;;;
2023/04/14 13:10:25;;;;;;;2;1.8;;;;;;;10.03;68.35645;928.248;;;;
2023/04/14 13:12:51;;;;;;;2;1.7;;;;;;;9.84;68.30371;928.2233;;;;
2023/04/14 13:15:16;;;;;;;1.7;1.6;;;;;;;9.8;67.90918;928.266;;;;
2023/04/14 13:17:43;;;;;;;1.7;1.6;;;;;;;9.37;69.53809;928.3145;;;;
2023/04/14 13:20:08;;;;;;;1.8;1.7;;;;;;;9.03;70.82813;928.2806;;;;
2023/04/14 13:22:33;;;;;;;3;2.5;;;;;;;9.07;71.60645;928.2703;;;;
2023/04/14 13:24:59;;;;;;;3;2.6;;;;;;;8.97;71.42188;928.2796;;;;
2023/04/14 13:27:24;;;;;;;2.4;2.2;;;;;;;8.89;74.3418;928.236;;;;
2023/04/14 13:29:50;;;;;;;2;1.8;;;;;;;8.8;73.13184;928.1763;;;;
2023/04/14 13:32:15;;;;;;;2.6;2;;;;;;;8.77;73.77539;928.1604;;;;
2023/04/14 13:34:43;;;;;;;7.4;5;;;;;;;8.79;75.34766;928.1826;;;;
2023/04/14 13:37:08;;;;;;;8;6.7;;;;;;;8.67;78.31738;928.1485;;;;
2023/04/14 13:39:36;;;;;;;13.1;8.4;;;;;;;9.16;76.7666;928.1161;;;;
2023/04/14 13:42:00;;;;;;;2.4;2.2;;;;;;;9.67;74.23633;928.1291;;;;
2023/04/14 13:44:29;;;;;;;3.6;2.6;;;;;;;9.71;72.84277;928.1169;;;;
2023/04/14 13:46:54;;;;;;;1.8;1.7;;;;;;;9.74;71.53613;928.027;;;;
2023/04/14 13:49:20;;;;;;;2.5;2.2;;;;;;;9.71;71.83984;928.0048;;;;
2023/04/14 13:51:46;;;;;;;12.7;8.3;;;;;;;9.97;73.24023;928;;;;
2023/04/14 13:54:11;;;;;;;5;3.3;;;;;;;10.09;71.04688;927.9551;;;;
2023/04/14 13:56:36;;;;;;;1.8;1.7;;;;;;;10.14;71.12402;927.9747;;;;
2023/04/14 13:59:02;;;;;;;2.6;1.7;;;;;;;10.49;68.23535;927.9789;;;;
2023/04/14 14:01:28;;;;;;;2;1.5;;;;;;;10.62;69.39844;927.9337;;;;
2023/04/14 14:03:54;;;;;;;2;1;;;;;;;10.87;66.12402;927.9216;;;;
2023/04/14 14:06:19;;;;;;;1.8;1.2;;;;;;;10.89;63.72754;927.872;;;;
2023/04/14 14:08:46;;;;;;;1.9;1.5;;;;;;;11.22;65.0918;927.8392;;;;
2023/04/14 14:11:11;;;;;;;1.6;1.5;;;;;;;10.75;66.90723;927.8148;;;;
2023/04/14 14:13:37;;;;;;;2.9;1.8;;;;;;;10.29;69.29004;927.7866;;;;
2023/04/14 14:16:02;;;;;;;2.2;1.8;;;;;;;10.29;68.04492;927.6912;;;;
2023/04/14 14:18:27;;;;;;;2.2;1.6;;;;;;;10.09;68.63867;927.7682;;;;
2023/04/14 14:20:52;;;;;;;2;1.5;;;;;;;10.06;69.25098;927.7008;;;;
2023/04/14 14:23:18;;;;;;;2.1;1.5;;;;;;;10.09;68.18457;927.7053;;;;
2023/04/14 14:25:43;;;;;;;2.7;1.5;;;;;;;10.12;68.2002;927.663;;;;
2023/04/14 14:28:11;;;;;;;2.3;1.8;;;;;;;10;68.86523;927.6579;;;;